Latest Weather Observations for Padthaway

IDS60801

Issued at 10:35 pm CST Sunday 20 April 2014 (issued every 30 minutes, with the page automatically refreshed every 10 minutes)

About weather observations | Map of weather stations | Latest weather observations for SA | Other Formats
Station Details ID: 026100 Name: PADTHAWAY SOUTH Lat: -36.65 Lon: 140.52 Height: 37.0 m
Data from the previous 72 hours. | See also: Recent months at Padthaway
Date/Time
CST
Temp
°C
App
Temp
°C
Dew
Point
Rel
Hum
%
Delta-T
°C
Wind Press
QNH
hPa
Press
MSL
hPa
Rain
since 9 am
mm
Dir
 
Spd
km/h
Gust
km/h
Spd
kts
Gust
kts
20/10:30pm 10.0 9.3 8.6 91 0.7 WSW 2 7 1 4 - - 0.0
20/10:00pm 9.8 7.6 7.9 88 0.9 N 9 11 5 6 - - 0.0
20/09:30pm 10.2 8.4 8.1 87 1.0 N 7 9 4 5 - - 0.0
20/09:00pm 10.6 8.1 8.0 84 1.3 N 11 11 6 6 - - 0.0
20/08:30pm 11.7 9.8 9.1 84 1.3 NNW 9 11 5 6 - - 0.0
20/08:00pm 12.9 11.1 9.5 80 1.7 NW 9 11 5 6 - - 0.0
20/07:30pm 15.1 13.6 10.7 75 2.3 WNW 9 13 5 7 - - 0.0
20/07:00pm 16.6 15.2 10.9 69 3.1 WNW 9 13 5 7 - - 0.0
20/06:30pm 16.8 15.4 10.9 68 3.2 W 9 15 5 8 - - 0.0
20/06:00pm 17.0 14.4 10.8 67 3.3 W 15 24 8 13 - - 0.0
20/05:30pm 16.8 15.1 9.7 63 3.7 WNW 9 13 5 7 - - 0.0
20/05:00pm 17.9 14.6 9.5 58 4.4 W 17 24 9 13 - - 0.0
20/04:30pm 17.4 14.8 10.8 65 3.5 W 15 22 8 12 - - 0.0
20/04:00pm 18.6 13.9 9.4 55 4.8 W 24 33 13 18 - - 0.0
20/03:30pm 19.5 16.2 9.7 53 5.2 W 17 28 9 15 - - 0.0
20/03:00pm 19.8 16.0 9.7 52 5.4 W 20 30 11 16 - - 0.0
20/02:30pm 20.4 16.3 8.7 47 6.1 W 20 32 11 17 - - 0.0
20/02:00pm 20.3 16.4 8.6 47 6.1 W 19 30 10 16 - - 0.0
20/01:30pm 20.3 16.2 8.6 47 6.1 W 20 33 11 18 - - 0.0
20/01:00pm 20.1 16.4 7.8 45 6.3 WNW 17 28 9 15 - - 0.0
20/12:30pm 19.8 16.3 7.2 44 6.4 W 15 28 8 15 - - 0.0
20/12:00pm 20.0 15.6 6.7 42 6.7 WNW 19 26 10 14 - - 0.0
20/11:30am 19.9 15.4 5.9 40 7.0 WNW 19 30 10 16 - - 0.0
20/11:00am 18.5 13.7 4.7 40 6.6 NW 19 24 10 13 - - 0.0
20/10:30am 17.9 13.2 5.2 43 6.1 NNW 19 26 10 14 - - 0.0
20/10:00am 17.5 12.6 5.1 44 6.0 NW 20 32 11 17 - - 0.0
20/09:30am 16.4 11.6 5.7 49 5.2 NW 20 30 11 16 - - 0.0
20/09:00am 15.7 11.1 5.6 51 4.8 NNW 19 30 10 16 - - 0.0
20/08:30am 14.8 10.3 6.1 56 4.2 NNW 19 26 10 14 - - 0.0
20/08:00am 13.6 9.9 6.2 61 3.5 N 15 22 8 12 - - 0.0
20/07:30am 13.4 10.1 6.3 62 3.4 NNW 13 20 7 11 - - 0.0
20/07:00am 13.1 9.3 6.0 62 3.4 NNW 15 20 8 11 - - 0.0
20/06:30am 12.9 9.1 5.8 62 3.3 N 15 20 8 11 - - 0.0
20/06:00am 12.9 9.9 5.8 62 3.3 N 11 13 6 7 - - 0.0
20/05:30am 12.8 9.8 5.9 63 3.3 N 11 15 6 8 - - 0.0
20/05:00am 12.7 9.3 5.8 63 3.2 N 13 17 7 9 - - 0.0
20/04:30am 12.6 9.6 6.0 64 3.1 N 11 15 6 8 - - 0.0
20/04:00am 11.9 9.3 6.2 68 2.7 N 9 11 5 6 - - 0.0
20/03:30am 11.6 9.0 6.3 70 2.5 NNE 9 11 5 6 - - 0.0
20/03:00am 11.3 8.9 7.0 75 2.1 NNE 9 9 5 5 - - 0.0
20/02:30am 11.3 9.5 7.2 76 2.0 NNE 6 7 3 4 - - 0.0
20/02:00am 11.4 10.8 7.3 76 2.0 CALM 0 0 0 0 - - 0.0
20/01:30am 11.5 10.9 7.2 75 2.1 CALM 0 0 0 0 - - 0.0
20/01:00am 11.6 11.0 7.3 75 2.1 CALM 0 6 0 3 - - 0.0
20/12:30am 12.0 10.4 6.3 68 2.7 SW 4 7 2 4 - - 0.0
20/12:00am 12.2 10.6 6.3 67 2.8 SSW 4 13 2 7 - - 0.0
 
Date/Time
CST
Temp
°C
App
Temp
°C
Dew
Point
Rel
Hum
%
Delta-T
°C
Wind Press
QNH
hPa
Press
MSL
hPa
Rain
since 9 am
mm
Dir
 
Spd
km/h
Gust
km/h
Spd
kts
Gust
kts
19/11:30pm 12.7 10.7 6.3 65 3.0 S 6 7 3 4 - - 0.0
19/11:00pm 12.9 10.7 6.3 64 3.1 NE 7 11 4 6 - - 0.0
19/10:30pm 12.5 8.8 6.3 66 2.9 NNE 15 17 8 9 - - 0.0
19/10:00pm 12.3 11.3 7.4 72 2.4 N 2 7 1 4 - - 0.0
19/09:30pm 12.4 11.9 7.7 73 2.3 CALM 0 0 0 0 - - 0.0
19/09:00pm 12.7 12.1 7.6 71 2.5 CALM 0 0 0 0 - - 0.0
19/08:30pm 13.1 12.3 6.7 65 3.1 CALM 0 6 0 3 - - 0.0
19/08:00pm 13.3 12.6 7.1 66 3.0 CALM 0 0 0 0 - - 0.0
19/07:30pm 13.8 13.2 7.3 65 3.2 CALM 0 2 0 1 - - 0.0
19/07:00pm 14.1 13.5 7.4 64 3.3 CALM 0 2 0 1 - - 0.0
19/06:30pm 14.6 12.6 6.4 58 4.0 S 6 7 3 4 - - 0.0
19/06:00pm 15.1 12.3 5.0 51 4.8 W 9 13 5 7 - - 0.0
19/05:30pm 15.4 12.7 5.6 52 4.7 W 9 13 5 7 - - 0.0
19/05:00pm 15.7 12.7 5.9 52 4.7 W 11 15 6 8 - - 0.0
19/04:30pm 16.1 13.1 6.0 51 4.9 W 11 15 6 8 - - 0.0
19/04:00pm 16.4 13.3 5.4 48 5.3 WSW 11 15 6 8 - - 0.0
19/03:30pm 16.4 13.1 4.8 46 5.5 WSW 11 17 6 9 - - 0.0
19/03:00pm 16.8 13.9 4.8 45 5.7 W 9 17 5 9 - - 0.0
19/02:30pm 16.9 13.7 4.9 45 5.7 WSW 11 13 6 7 - - 0.0
19/02:00pm 17.1 13.9 5.1 45 5.7 W 11 17 6 9 - - 0.0
19/01:30pm 16.7 13.8 4.4 44 5.8 WNW 9 19 5 10 - - 0.0
19/01:00pm 16.8 13.9 4.8 45 5.7 W 9 15 5 8 - - 0.0
19/12:30pm 16.1 12.8 4.5 46 5.4 SW 11 19 6 10 - - 0.0
19/12:00pm 16.6 13.7 4.6 45 5.7 WNW 9 13 5 7 - - 0.0
19/11:30am 16.3 12.8 3.7 43 5.8 WSW 11 17 6 9 - - 0.0
19/11:00am 16.6 13.6 4.3 44 5.8 SW 9 17 5 9 - - 0.0
19/10:30am 15.7 13.4 4.7 48 5.2 SSE 6 13 3 7 - - 0.0
19/10:00am 14.7 12.4 5.5 54 4.4 NW 7 17 4 9 - - 0.0
19/09:30am 13.8 11.7 6.7 62 3.4 NNW 7 11 4 6 - - 0.0
19/09:00am 12.9 10.1 6.9 67 2.9 NW 11 13 6 7 - - 0.0
19/08:30am 11.9 10.4 7.0 72 2.3 NW 4 9 2 5 - - 0.0
19/08:00am 10.8 8.8 6.9 77 1.9 NNW 7 9 4 5 - - 0.0
19/07:30am 10.0 8.0 6.9 81 1.5 NNW 7 9 4 5 - - 0.0
19/07:00am 9.4 6.9 6.5 82 1.3 WNW 9 13 5 7 - - 0.0
19/06:30am 9.3 7.8 6.7 84 1.2 WNW 4 7 2 4 - - 0.0
19/06:00am 9.3 7.7 6.4 82 1.3 WNW 4 13 2 7 - - 0.0
19/05:30am 9.3 7.2 6.6 83 1.3 N 7 9 4 5 - - 0.0
19/05:00am 9.0 6.4 6.3 83 1.2 N 9 11 5 6 - - 0.0
19/04:30am 8.7 6.5 6.2 84 1.1 N 7 9 4 5 - - 0.0
19/04:00am 8.5 6.5 6.1 85 1.1 NNW 6 9 3 5 - - 0.0
19/03:30am 8.2 5.6 6.0 86 1.0 N 9 9 5 5 - - 0.0
19/03:00am 7.6 5.3 5.7 88 0.9 NNW 7 9 4 5 - - 0.0
19/02:30am 7.5 6.5 5.6 88 0.9 CALM 0 7 0 4 - - 0.0
19/02:00am 7.3 4.9 5.4 88 0.8 NNW 7 9 4 5 - - 0.0
19/01:30am 6.7 4.3 5.3 91 0.6 WNW 7 9 4 5 - - 0.0
19/01:00am 5.9 4.6 3.9 87 0.8 CALM 0 0 0 0 - - 0.0
19/12:30am 7.1 5.0 5.6 90 0.7 N 6 9 3 5 - - 0.0
19/12:00am 6.2 5.0 4.8 91 0.6 CALM 0 7 0 4 - - 0.0
 
Date/Time
CST
Temp
°C
App
Temp
°C
Dew
Point
Rel
Hum
%
Delta-T
°C
Wind Press
QNH
hPa
Press
MSL
hPa
Rain
since 9 am
mm
Dir
 
Spd
km/h
Gust
km/h
Spd
kts
Gust
kts
18/11:30pm 5.2 3.5 3.9 91 0.5 N 2 9 1 5 - - 0.0
18/11:00pm 4.4 2.8 2.6 88 0.7 CALM 0 0 0 0 - - 0.0
18/10:30pm 4.7 2.0 2.7 87 0.8 N 6 6 3 3 - - 0.0
18/10:00pm 5.3 2.5 3.3 87 0.8 N 7 9 4 5 - - 0.0
18/09:30pm 5.9 4.2 4.1 88 0.8 SSW 2 7 1 4 - - 0.0
18/09:00pm 6.0 4.6 3.5 84 1.1 CALM 0 0 0 0 - - 0.0
18/08:30pm 6.5 4.4 3.7 82 1.2 S 4 6 2 3 - - 0.0
18/08:00pm 7.7 6.4 4.1 78 1.6 CALM 0 7 0 4 - - 0.0
18/07:30pm 10.9 8.5 5.2 68 2.6 S 7 9 4 5 - - 0.0
18/07:00pm 11.7 8.8 4.9 63 3.1 S 9 13 5 7 - - 0.0
18/06:30pm 12.5 9.6 4.7 59 3.6 SSW 9 13 5 7 - - 0.0
18/06:00pm 13.4 10.5 4.6 55 4.1 S 9 13 5 7 - - 0.0
18/05:30pm 14.9 10.8 4.6 50 4.8 SSW 15 24 8 13 - - 0.0
18/05:00pm 16.1 11.8 5.1 48 5.2 SSW 17 28 9 15 - - 0.0
18/04:30pm 16.9 12.2 6.1 49 5.3 SSW 20 33 11 18 - - 0.0
18/04:00pm 16.6 11.5 4.0 43 5.9 S 20 32 11 17 - - 0.0
18/03:30pm 18.0 12.5 3.9 39 6.6 SSW 22 37 12 20 - - 0.0
18/03:00pm 18.7 13.1 3.7 37 7.1 SSW 22 37 12 20 - - 0.0
18/02:30pm 18.6 12.9 4.8 40 6.6 SW 24 33 13 18 - - 0.0
18/02:00pm 18.0 12.0 3.5 38 6.8 SSW 24 39 13 21 - - 0.0
18/01:30pm 18.5 12.7 4.3 39 6.8 SSW 24 35 13 19 - - 0.0
18/01:00pm 18.8 12.7 3.0 35 7.3 SSW 24 39 13 21 - - 0.0
18/12:30pm 18.5 12.7 4.3 39 6.8 SSW 24 33 13 18 - - 0.0
18/12:00pm 18.6 13.4 5.5 42 6.4 SSW 22 32 12 17 - - 0.0
18/11:30am 18.0 12.4 3.5 38 6.8 SSW 22 35 12 19 - - 0.0
18/11:00am 17.3 11.8 5.9 47 5.6 SSW 24 33 13 18 - - 0.0
18/10:30am 16.9 12.0 7.0 52 4.9 S 22 37 12 20 - - 0.0
18/10:00am 16.1 12.0 7.8 58 4.2 SSW 19 28 10 15 - - 0.0
18/09:30am 16.3 12.5 9.7 65 3.4 SSW 20 32 11 17 - - 0.0
18/09:00am 15.1 12.2 11.1 77 2.1 SSW 17 26 9 14 - - 0.8
18/08:30am 14.5 12.8 12.4 87 1.1 SSW 13 19 7 10 - - 0.8
18/08:00am 14.1 11.1 12.1 88 1.1 SSW 19 28 10 15 - - 0.8
18/07:30am 14.1 12.0 12.3 89 1.0 SSW 15 26 8 14 - - 0.8
18/07:00am 14.0 11.5 12.4 90 0.9 SSW 17 26 9 14 - - 0.8
18/06:30am 14.1 11.0 13.3 95 0.4 W 22 37 12 20 - - 0.8
18/06:00am 12.8 11.2 11.7 93 0.6 NNW 11 15 6 8 - - 0.4
18/05:30am 12.4 10.7 11.1 92 0.7 NNW 11 13 6 7 - - 0.4
18/05:00am 12.5 10.8 11.2 92 0.7 NNW 11 15 6 8 - - 0.4
18/04:30am 12.9 11.3 11.6 92 0.7 NNW 11 15 6 8 - - 0.4
18/04:00am 13.6 11.9 12.3 92 0.7 NW 13 20 7 11 - - 0.4
18/03:30am 14.2 11.7 11.2 82 1.6 NW 15 20 8 11 - - 0.2
18/03:00am 14.6 12.2 10.2 75 2.3 NNW 13 17 7 9 - - 0.0
18/02:30am 12.4 10.3 9.8 84 1.3 NNW 11 13 6 7 - - 0.0
18/02:00am 13.2 11.4 9.6 79 1.8 N 9 9 5 5 - - 0.0
18/01:30am 14.5 12.8 9.9 74 2.4 NNW 9 13 5 7 - - 0.0
18/01:00am 14.1 12.5 10.1 77 2.1 N 9 9 5 5 - - 0.0
18/12:30am 14.2 12.5 10.0 76 2.2 N 9 11 5 6 - - 0.0
18/12:00am 14.1 12.8 9.9 76 2.2 N 7 9 4 5 - - 0.0
 
Date/Time
CST
Temp
°C
App
Temp
°C
Dew
Point
Rel
Hum
%
Delta-T
°C
Wind Press
QNH
hPa
Press
MSL
hPa
Rain
since 9 am
mm
Dir
 
Spd
km/h
Gust
km/h
Spd
kts
Gust
kts
17/11:30pm 14.3 12.6 9.9 75 2.3 N 9 11 5 6 - - 0.0
17/11:00pm 13.0 11.9 9.8 81 1.6 N 6 9 3 5 - - 0.0

Other Formats:

Comma delimited format used in spreadsheet applications
http://www.bom.gov.au/fwo/IDS60801/IDS60801.95823.axf

JavaScript Object Notation format (JSON) in row-major order
http://www.bom.gov.au/fwo/IDS60801/IDS60801.95823.json